createdAt,value
2022-08-11T00:01:22.366Z,21.55
2022-08-11T00:04:01.050Z,21.53
2022-08-11T00:06:34.016Z,21.51
2022-08-11T00:09:02.287Z,21.49
2022-08-11T00:11:38.371Z,21.47
2022-08-11T00:14:06.684Z,21.48
2022-08-11T00:16:37.434Z,21.48
2022-08-11T00:19:05.210Z,21.45
2022-08-11T00:22:05.193Z,21.41
2022-08-11T00:24:52.525Z,21.38
2022-08-11T00:27:21.603Z,21.35
2022-08-11T00:29:58.732Z,21.34
2022-08-11T00:32:29.797Z,21.33
2022-08-11T00:35:50.029Z,21.33
2022-08-11T00:37:53.909Z,21.34
2022-08-11T00:41:03.517Z,21.32
2022-08-11T00:43:55.412Z,21.30
2022-08-11T00:46:29.600Z,21.27
2022-08-11T00:49:27.058Z,21.26
2022-08-11T00:52:10.474Z,21.22
2022-08-11T00:54:40.931Z,21.19
2022-08-11T00:57:39.463Z,21.11
2022-08-11T01:00:20.476Z,21.11
2022-08-11T01:03:01.500Z,21.08
2022-08-11T01:05:47.475Z,21.06
2022-08-11T01:08:38.617Z,21.05
2022-08-11T01:11:33.783Z,21.01
2022-08-11T01:14:39.451Z,20.99
2022-08-11T01:17:31.717Z,20.93
2022-08-11T01:20:46.576Z,20.85
2022-08-11T01:23:47.051Z,20.84
2022-08-11T01:26:53.028Z,20.77
2022-08-11T01:29:54.750Z,20.70
2022-08-11T01:32:58.273Z,20.64
2022-08-11T01:35:45.936Z,20.68
2022-08-11T01:38:35.345Z,20.63
2022-08-11T01:41:53.836Z,20.62
2022-08-11T01:44:39.553Z,20.54
2022-08-11T01:47:54.307Z,20.49
2022-08-11T01:50:43.741Z,20.46
2022-08-11T01:53:46.030Z,20.44
2022-08-11T01:56:25.496Z,20.46
2022-08-11T01:59:21.376Z,20.39
2022-08-11T02:02:11.090Z,20.42
2022-08-11T02:04:57.393Z,20.38
2022-08-11T02:07:56.159Z,20.32
2022-08-11T02:10:42.062Z,20.29
2022-08-11T02:13:30.290Z,20.24
2022-08-11T02:16:49.892Z,20.18
2022-08-11T02:19:58.302Z,20.13
2022-08-11T02:22:55.779Z,20.08
2022-08-11T02:25:45.637Z,20.01
2022-08-11T02:28:30.803Z,19.95
2022-08-11T02:32:15.424Z,19.88
2022-08-11T02:35:00.270Z,19.81
2022-08-11T02:37:58.241Z,19.74
2022-08-11T02:40:46.062Z,19.73
2022-08-11T02:43:29.121Z,19.78
2022-08-11T02:46:21.786Z,19.79
2022-08-11T02:49:59.955Z,19.79
2022-08-11T02:53:00.173Z,19.78
2022-08-11T02:55:55.692Z,19.74
2022-08-11T02:58:30.706Z,19.71
2022-08-11T03:01:07.434Z,19.74
2022-08-11T03:04:17.582Z,19.74
2022-08-11T03:07:28.811Z,19.73
2022-08-11T03:10:20.760Z,19.67
2022-08-11T03:13:32.733Z,19.70
2022-08-11T03:16:37.961Z,19.70
2022-08-11T03:19:46.309Z,19.70
2022-08-11T03:22:47.725Z,19.67
2022-08-11T03:25:46.124Z,19.63
2022-08-11T03:28:23.080Z,19.63
2022-08-11T03:31:20.318Z,19.58
2022-08-11T03:34:24.848Z,19.56
2022-08-11T03:37:16.665Z,19.49
2022-08-11T03:40:08.579Z,19.45
2022-08-11T03:42:54.111Z,19.39
2022-08-11T03:45:44.157Z,19.36
2022-08-11T03:48:21.297Z,19.33
2022-08-11T03:50:59.601Z,19.25
2022-08-11T03:54:07.908Z,19.21
2022-08-11T03:56:43.894Z,19.19
2022-08-11T03:59:23.829Z,19.14
2022-08-11T04:02:25.544Z,19.05
2022-08-11T04:05:29.791Z,18.98
2022-08-11T04:08:34.377Z,18.91
2022-08-11T04:11:26.569Z,18.84
2022-08-11T04:14:50.949Z,18.75
2022-08-11T04:17:22.969Z,18.74
2022-08-11T04:20:17.353Z,18.59
2022-08-11T04:23:08.849Z,18.51
2022-08-11T04:25:58.953Z,18.45
2022-08-11T04:28:31.502Z,18.45
2022-08-11T04:31:44.440Z,18.42
2022-08-11T04:34:24.760Z,18.41
2022-08-11T04:37:33.076Z,18.35
2022-08-11T04:40:27.166Z,18.26
2022-08-11T04:43:32.845Z,18.21
2022-08-11T04:46:15.829Z,18.18
2022-08-11T04:49:33.788Z,18.09
2022-08-11T04:52:57.978Z,18.13
2022-08-11T04:55:59.687Z,18.04
2022-08-11T04:59:20.605Z,17.92
2022-08-11T05:02:16.977Z,17.95
2022-08-11T05:05:34.787Z,17.87
2022-08-11T05:08:24.016Z,17.97
2022-08-11T05:11:16.560Z,18.04
2022-08-11T05:14:07.952Z,18.09
2022-08-11T05:17:01.879Z,18.05
2022-08-11T05:19:58.973Z,18.05
2022-08-11T05:22:49.537Z,18.08
2022-08-11T05:26:44.598Z,18.11
2022-08-11T05:29:19.768Z,18.10
2022-08-11T05:32:11.152Z,18.14
2022-08-11T05:34:56.161Z,18.19
2022-08-11T05:37:39.644Z,18.27
2022-08-11T05:40:32.952Z,18.34
2022-08-11T05:43:24.839Z,18.38
2022-08-11T05:46:19.305Z,18.48
2022-08-11T05:49:05.766Z,18.55
2022-08-11T05:52:05.498Z,18.61
2022-08-11T05:54:59.104Z,18.71
2022-08-11T05:57:48.807Z,18.80
2022-08-11T06:00:19.837Z,18.86
2022-08-11T06:03:01.978Z,18.90
2022-08-11T06:05:38.453Z,18.99
2022-08-11T06:08:16.728Z,19.07
2022-08-11T06:10:45.483Z,19.14
2022-08-11T06:13:16.817Z,19.17
2022-08-11T06:15:49.328Z,19.32
2022-08-11T06:18:17.179Z,19.44
2022-08-11T06:20:53.495Z,19.57
2022-08-11T06:23:24.685Z,19.63
2022-08-11T06:25:57.616Z,19.66
2022-08-11T06:28:32.879Z,19.71
2022-08-11T06:31:00.734Z,19.75
2022-08-11T06:33:52.310Z,19.85
2022-08-11T06:36:44.072Z,19.90
2022-08-11T06:39:45.835Z,20.01
2022-08-11T06:42:35.655Z,20.12
2022-08-11T06:45:09.484Z,20.17
2022-08-11T06:47:43.638Z,20.15
2022-08-11T06:50:36.972Z,20.10
2022-08-11T06:53:06.605Z,20.15
2022-08-11T06:55:58.136Z,20.04
2022-08-11T06:58:50.809Z,20.06
2022-08-11T07:01:39.210Z,20.00
2022-08-11T07:04:10.734Z,20.01
2022-08-11T07:07:14.356Z,20.17
2022-08-11T07:10:29.874Z,20.23
2022-08-11T07:13:45.145Z,20.30
2022-08-11T07:16:14.075Z,20.40
2022-08-11T07:19:06.307Z,20.43
2022-08-11T07:22:02.390Z,20.37
2022-08-11T07:25:03.293Z,20.44
2022-08-11T07:28:02.343Z,20.58
2022-08-11T07:30:30.573Z,20.78
2022-08-11T07:33:02.081Z,20.92
2022-08-11T07:35:35.517Z,20.96
2022-08-11T07:38:25.258Z,20.99
2022-08-11T07:40:55.903Z,21.08
2022-08-11T07:43:28.726Z,21.13
2022-08-11T07:46:16.948Z,21.17
2022-08-11T07:49:03.350Z,21.32
2022-08-11T07:51:58.466Z,21.47
2022-08-11T07:54:28.825Z,21.59
2022-08-11T07:57:09.536Z,21.69
2022-08-11T08:00:14.023Z,21.72
2022-08-11T08:03:03.330Z,21.83
2022-08-11T08:05:49.868Z,21.96
2022-08-11T08:08:36.639Z,22.15
2022-08-11T08:11:27.078Z,22.20
2022-08-11T08:14:14.594Z,22.39
2022-08-11T08:17:01.855Z,22.51
2022-08-11T08:19:29.876Z,22.61
2022-08-11T08:22:11.168Z,22.78
2022-08-11T08:24:48.202Z,22.87
2022-08-11T08:27:16.214Z,22.89
2022-08-11T08:30:05.657Z,22.97
2022-08-11T08:32:33.591Z,23.08
2022-08-11T08:35:06.291Z,23.14
2022-08-11T08:37:45.685Z,23.26
2022-08-11T08:40:20.259Z,23.38
2022-08-11T08:42:54.904Z,23.53
2022-08-11T08:45:23.176Z,23.58
2022-08-11T08:48:02.374Z,23.68
2022-08-11T08:51:02.911Z,23.71
2022-08-11T08:53:34.115Z,23.81
2022-08-11T08:56:08.239Z,23.93
2022-08-11T08:58:38.329Z,24.04
2022-08-11T09:01:06.425Z,24.17
2022-08-11T09:04:04.737Z,24.23
2022-08-11T09:06:32.602Z,24.42
2022-08-11T09:09:03.444Z,24.57
2022-08-11T09:11:49.830Z,24.74
2022-08-11T09:14:25.727Z,24.84
2022-08-11T09:16:56.549Z,24.90
2022-08-11T09:19:29.780Z,25.02
2022-08-11T09:22:21.830Z,25.19
2022-08-11T09:25:11.346Z,25.31
2022-08-11T09:27:40.200Z,25.45
2022-08-11T09:30:27.057Z,25.50
2022-08-11T09:33:06.163Z,25.63
2022-08-11T09:35:37.792Z,25.66
2022-08-11T09:38:25.261Z,25.82
2022-08-11T09:40:58.194Z,25.88
2022-08-11T09:43:50.056Z,26.01
2022-08-11T09:46:24.995Z,26.13
2022-08-11T09:48:57.896Z,26.10
2022-08-11T09:51:29.092Z,26.21
2022-08-11T09:54:02.724Z,26.23
2022-08-11T09:56:52.799Z,26.43
2022-08-11T09:59:23.825Z,26.62
2022-08-11T10:02:05.040Z,26.72
2022-08-11T10:04:48.497Z,26.85
2022-08-11T10:07:17.509Z,26.91
2022-08-11T10:10:02.599Z,27.05
2022-08-11T10:12:38.853Z,27.07
2022-08-11T10:15:28.910Z,27.10
2022-08-11T10:18:22.687Z,27.17
2022-08-11T10:20:51.555Z,27.30
2022-08-11T10:24:01.325Z,27.46
2022-08-11T10:27:07.638Z,27.58
2022-08-11T10:29:57.253Z,27.80
2022-08-11T10:32:57.493Z,27.97
2022-08-11T10:35:29.355Z,28.03
2022-08-11T10:38:09.084Z,28.05
2022-08-11T10:40:41.044Z,27.98
2022-08-11T10:43:56.815Z,27.99
2022-08-11T10:46:29.776Z,28.05
2022-08-11T10:49:04.677Z,28.09
2022-08-11T10:51:53.675Z,28.08
2022-08-11T10:54:41.013Z,28.25
2022-08-11T10:57:27.821Z,28.25
2022-08-11T10:59:58.586Z,28.46
2022-08-11T11:02:29.070Z,28.58
2022-08-11T11:05:01.180Z,28.55
2022-08-11T11:07:44.131Z,28.74
2022-08-11T11:10:12.450Z,28.75
2022-08-11T11:13:06.415Z,28.87
2022-08-11T11:15:57.859Z,29.05
2022-08-11T11:18:32.965Z,29.08
2022-08-11T11:21:08.270Z,29.09
2022-08-11T11:23:50.667Z,29.24
2022-08-11T11:26:57.256Z,29.35
2022-08-11T11:30:07.204Z,29.38
2022-08-11T11:33:24.154Z,29.42
2022-08-11T11:36:10.583Z,29.50
2022-08-11T11:38:38.622Z,29.62
2022-08-11T11:41:27.010Z,29.52
2022-08-11T11:43:56.913Z,29.57
2022-08-11T11:46:30.935Z,29.54
2022-08-11T11:48:59.856Z,29.65
2022-08-11T11:51:30.637Z,29.81
2022-08-11T11:53:58.427Z,29.86
2022-08-11T11:56:26.314Z,29.88
2022-08-11T11:59:12.457Z,29.98
2022-08-11T12:01:50.269Z,29.87
2022-08-11T12:04:19.382Z,30.01
2022-08-11T12:06:48.219Z,29.98
2022-08-11T12:09:19.521Z,30.04
2022-08-11T12:12:08.888Z,30.17
2022-08-11T12:14:38.906Z,30.16
2022-08-11T12:17:06.657Z,30.14
2022-08-11T12:19:36.526Z,30.25
2022-08-11T12:22:23.798Z,30.30
2022-08-11T12:25:10.130Z,30.36
2022-08-11T12:27:41.809Z,30.41
2022-08-11T12:30:10.493Z,30.39
2022-08-11T12:32:44.330Z,30.47
2022-08-11T12:35:15.586Z,30.47
2022-08-11T12:37:57.293Z,30.47
2022-08-11T12:41:11.885Z,30.45
2022-08-11T12:43:56.304Z,30.51
2022-08-11T12:46:28.931Z,30.61
2022-08-11T12:49:16.866Z,30.54
2022-08-11T12:52:14.473Z,30.48
2022-08-11T12:54:50.891Z,30.57
2022-08-11T12:57:46.436Z,30.49
2022-08-11T13:00:33.363Z,30.54
2022-08-11T13:03:19.690Z,30.57
2022-08-11T13:05:50.213Z,30.62
2022-08-11T13:08:18.169Z,30.69
2022-08-11T13:11:04.618Z,30.65
2022-08-11T13:13:55.837Z,30.77
2022-08-11T13:16:59.471Z,30.77
2022-08-11T13:19:27.245Z,30.74
2022-08-11T13:21:55.079Z,30.76
2022-08-11T13:24:23.025Z,30.82
2022-08-11T13:26:54.196Z,30.79
2022-08-11T13:29:23.557Z,30.69
2022-08-11T13:31:51.780Z,30.77
2022-08-11T13:34:20.249Z,30.76
2022-08-11T13:36:50.469Z,30.69
2022-08-11T13:39:18.413Z,30.65
2022-08-11T13:41:48.869Z,30.69
2022-08-11T13:44:23.267Z,30.77
2022-08-11T13:46:53.410Z,30.80
2022-08-11T13:49:26.302Z,30.83
2022-08-11T13:51:54.589Z,30.80
2022-08-11T13:54:27.863Z,30.85
2022-08-11T13:56:58.372Z,30.78
2022-08-11T13:59:29.599Z,30.81
2022-08-11T14:02:28.175Z,30.81
2022-08-11T14:04:56.642Z,30.74
2022-08-11T14:07:33.409Z,30.60
2022-08-11T14:10:01.350Z,30.59
2022-08-11T14:12:49.791Z,30.52
2022-08-11T14:15:23.732Z,30.59
2022-08-11T14:18:17.711Z,30.55
2022-08-11T14:21:04.159Z,30.48
2022-08-11T14:23:46.151Z,30.40
2022-08-11T14:26:29.287Z,30.33
2022-08-11T14:29:17.705Z,30.16
2022-08-11T14:31:53.200Z,30.06
2022-08-11T14:34:23.733Z,29.94
2022-08-11T14:36:53.949Z,29.83
2022-08-11T14:39:37.211Z,29.71
2022-08-11T14:42:27.075Z,29.47
2022-08-11T14:45:22.631Z,29.28
2022-08-11T14:47:55.782Z,29.21
2022-08-11T14:50:27.234Z,29.09
2022-08-11T14:52:59.786Z,29.05
2022-08-11T14:55:50.176Z,29.01
2022-08-11T14:58:19.713Z,28.90
2022-08-11T15:00:52.665Z,28.80
2022-08-11T15:03:28.182Z,28.67
2022-08-11T15:06:01.413Z,28.53
2022-08-11T15:08:52.856Z,28.36
2022-08-11T15:11:40.721Z,28.29
2022-08-11T15:14:09.967Z,28.22
2022-08-11T15:17:03.522Z,28.18
2022-08-11T15:19:40.212Z,28.12
2022-08-11T15:22:31.011Z,28.12
2022-08-11T15:25:00.311Z,28.05
2022-08-11T15:27:51.729Z,27.97
2022-08-11T15:30:39.067Z,27.87
2022-08-11T15:33:26.856Z,27.80
2022-08-11T15:36:13.845Z,27.72
2022-08-11T15:38:46.477Z,27.73
2022-08-11T15:41:36.957Z,27.72
2022-08-11T15:44:44.541Z,27.71
2022-08-11T15:47:15.557Z,27.68
2022-08-11T15:50:12.000Z,27.61
2022-08-11T15:52:34.185Z,27.55
2022-08-11T15:55:08.661Z,27.49
2022-08-11T15:57:58.277Z,27.47
2022-08-11T16:00:44.695Z,27.46
2022-08-11T16:03:54.408Z,27.44
2022-08-11T16:06:24.343Z,27.41
2022-08-11T16:08:53.088Z,27.38
2022-08-11T16:11:24.052Z,27.36
2022-08-11T16:14:13.079Z,27.31
2022-08-11T16:16:40.973Z,27.27
2022-08-11T16:19:11.687Z,27.24
2022-08-11T16:21:41.611Z,27.22
2022-08-11T16:27:01.641Z,27.17
2022-08-11T16:27:17.256Z,27.18
2022-08-11T16:29:51.351Z,27.15
2022-08-11T16:32:24.590Z,27.15
2022-08-11T16:35:37.295Z,27.12
2022-08-11T16:38:34.540Z,27.08
2022-08-11T16:41:09.531Z,27.05
2022-08-11T16:44:06.842Z,27.03
2022-08-11T16:47:00.699Z,27.05
2022-08-11T16:49:52.763Z,27.03
2022-08-11T16:52:21.358Z,27.01
2022-08-11T16:54:52.858Z,26.97
2022-08-11T16:58:04.048Z,26.94
2022-08-11T17:00:32.101Z,26.93
2022-08-11T17:03:18.652Z,26.92
2022-08-11T17:06:10.455Z,26.90
2022-08-11T17:09:11.701Z,26.88
2022-08-11T17:12:06.079Z,26.85
2022-08-11T17:14:38.672Z,26.83
2022-08-11T17:17:13.828Z,26.83
2022-08-11T17:20:39.981Z,26.76
2022-08-11T17:22:59.659Z,26.73
2022-08-11T17:26:03.543Z,26.69
2022-08-11T17:28:21.516Z,26.61
2022-08-11T17:31:19.898Z,26.57
2022-08-11T17:34:15.085Z,26.56
2022-08-11T17:36:45.823Z,26.50
2022-08-11T17:39:14.219Z,26.48
2022-08-11T17:42:00.637Z,26.47
2022-08-11T17:44:50.350Z,26.44
2022-08-11T17:47:42.843Z,26.45
2022-08-11T17:50:17.412Z,26.42
2022-08-11T17:53:04.929Z,26.36
2022-08-11T17:55:53.535Z,26.34
2022-08-11T17:58:48.045Z,26.31
2022-08-11T18:01:16.577Z,26.22
2022-08-11T18:03:53.240Z,26.20
2022-08-11T18:06:34.050Z,26.16
2022-08-11T18:09:25.422Z,26.13
2022-08-11T18:12:12.917Z,26.07
2022-08-11T18:15:01.737Z,26.04
2022-08-11T18:17:48.242Z,25.98
2022-08-11T18:20:34.780Z,25.94
2022-08-11T18:23:40.530Z,25.90
2022-08-11T18:26:31.228Z,25.86
2022-08-11T18:29:17.587Z,25.75
2022-08-11T18:32:07.515Z,25.72
2022-08-11T18:35:00.425Z,25.71
2022-08-11T18:37:48.608Z,25.62
2022-08-11T18:40:39.840Z,25.56
2022-08-11T18:43:27.873Z,25.51
2022-08-11T18:46:21.370Z,25.41
2022-08-11T18:50:03.777Z,25.34
2022-08-11T18:52:40.678Z,25.25
2022-08-11T18:55:35.086Z,25.18
2022-08-11T18:58:24.000Z,25.17
2022-08-11T19:01:16.035Z,25.11
2022-08-11T19:04:11.283Z,25.02
2022-08-11T19:07:09.937Z,24.95
2022-08-11T19:09:58.783Z,24.94
2022-08-11T19:12:56.823Z,24.90
2022-08-11T19:15:43.355Z,24.85
2022-08-11T19:18:35.096Z,24.81
2022-08-11T19:21:24.790Z,24.70
2022-08-11T19:24:14.561Z,24.64
2022-08-11T19:27:00.939Z,24.58
2022-08-11T19:30:07.888Z,24.51
2022-08-11T19:33:02.049Z,24.42
2022-08-11T19:35:50.943Z,24.35
2022-08-11T19:38:38.377Z,24.23
2022-08-11T19:41:56.277Z,24.16
2022-08-11T19:44:31.292Z,24.13
2022-08-11T19:47:20.723Z,24.08
2022-08-11T19:50:07.320Z,24.00
2022-08-11T19:52:53.587Z,23.97
2022-08-11T19:55:40.270Z,23.90
2022-08-11T19:58:30.179Z,23.89
2022-08-11T20:01:16.959Z,23.82
2022-08-11T20:04:06.590Z,23.76
2022-08-11T20:06:53.071Z,23.74
2022-08-11T20:10:04.999Z,23.67
2022-08-11T20:12:49.203Z,23.65
2022-08-11T20:15:38.767Z,23.60
2022-08-11T20:18:29.421Z,23.58
2022-08-11T20:21:25.931Z,23.57
2022-08-11T20:24:20.841Z,23.52
2022-08-11T20:27:18.544Z,23.49
2022-08-11T20:30:13.608Z,23.48
2022-08-11T20:33:00.984Z,23.40
2022-08-11T20:35:49.770Z,23.41
2022-08-11T20:38:42.096Z,23.37
2022-08-11T20:41:31.695Z,23.34
2022-08-11T20:44:38.816Z,23.31
2022-08-11T20:47:25.367Z,23.31
2022-08-11T20:50:19.299Z,23.30
2022-08-11T20:53:06.363Z,23.28
2022-08-11T20:55:54.854Z,23.24
2022-08-11T20:59:13.788Z,23.16
2022-08-11T21:01:56.299Z,23.13
2022-08-11T21:04:54.004Z,23.11
2022-08-11T21:07:50.282Z,23.09
2022-08-11T21:10:51.579Z,23.04
2022-08-11T21:13:42.981Z,23.03
2022-08-11T21:16:39.614Z,23.03
2022-08-11T21:20:00.453Z,22.99
2022-08-11T21:22:59.547Z,22.97
2022-08-11T21:26:03.262Z,22.92
2022-08-11T21:28:54.162Z,22.92
2022-08-11T21:31:43.998Z,22.89
2022-08-11T21:34:31.271Z,22.83
2022-08-11T21:37:19.081Z,22.80
2022-08-11T21:40:07.150Z,22.73
2022-08-11T21:42:54.648Z,22.71
2022-08-11T21:45:41.468Z,22.65
2022-08-11T21:48:31.844Z,22.62
2022-08-11T21:51:18.659Z,22.59
2022-08-11T21:54:08.371Z,22.57
2022-08-11T21:56:57.402Z,22.56
2022-08-11T21:59:51.587Z,22.54
2022-08-11T22:02:38.077Z,22.51
2022-08-11T22:05:25.292Z,22.49
2022-08-11T22:08:11.871Z,22.47
2022-08-11T22:10:58.294Z,22.41
2022-08-11T22:14:06.204Z,22.38
2022-08-11T22:16:50.828Z,22.28
2022-08-11T22:19:38.019Z,22.21
2022-08-11T22:22:26.881Z,22.20
2022-08-11T22:25:16.527Z,22.18
2022-08-11T22:28:04.997Z,22.13
2022-08-11T22:30:51.936Z,22.08
2022-08-11T22:33:42.646Z,22.01
2022-08-11T22:36:45.375Z,21.99
2022-08-11T22:39:31.710Z,21.89
2022-08-11T22:42:33.205Z,21.84
2022-08-11T22:45:20.652Z,21.76
2022-08-11T22:48:07.400Z,21.73
2022-08-11T22:50:54.141Z,21.66
2022-08-11T22:53:58.377Z,21.66
2022-08-11T22:56:48.716Z,21.66
2022-08-11T22:59:35.939Z,21.56
2022-08-11T23:02:23.141Z,21.54
2022-08-11T23:05:11.700Z,21.51
2022-08-11T23:07:58.024Z,21.51
2022-08-11T23:10:44.287Z,21.54
2022-08-11T23:13:30.902Z,21.57
2022-08-11T23:16:19.759Z,21.63
2022-08-11T23:19:06.171Z,21.69
2022-08-11T23:21:52.714Z,21.68
2022-08-11T23:24:40.042Z,21.63
2022-08-11T23:27:27.362Z,21.69
2022-08-11T23:30:14.608Z,21.71
2022-08-11T23:33:05.114Z,21.68
2022-08-11T23:35:55.442Z,21.68
2022-08-11T23:38:45.582Z,21.61
2022-08-11T23:41:33.972Z,21.62
2022-08-11T23:44:24.043Z,21.56
2022-08-11T23:47:12.075Z,21.60
2022-08-11T23:49:58.638Z,21.63
2022-08-11T23:52:45.550Z,21.65
2022-08-11T23:55:31.779Z,21.62
2022-08-11T23:58:18.041Z,21.61
